Bezoek onze andere website:

De Wijde Wereld



METAR rapporten vliegvelden

   
EHBK - Maastricht
Gewijzigd: 20-07-2019 00:25
Gedeeltelijk bewolkt  
Gedeeltelijk bewolkt  
   Wind: ZZO 0 km/h
Wind: ZZO 0 km/h
Temperatuur: 19°C
Dauwpunt: 13°C
Vochtigheid: 68%
Barometer: 1013 hPa
Bewolking: Partly Cloudy
Zicht: meer dan 10 km
Bewolking: Gedeeltelijk bewolkt m
EHBK 192225Z AUTO 16005KT 9999 NSC 19/13 Q1013
LSZA - Lugano
Gewijzigd: 20-07-2019 00:20
Helder  
Helder  
   Wind: varieert 0 km/h
Wind: varieert 0 km/h
Temperatuur: 21°C
Dauwpunt: 18°C
Vochtigheid: 83%
Barometer: 1018 hPa
Zicht: meer dan 10 km
Bewolking: Helder m
LSZA 192220Z AUTO VRB02KT CAVOK 21/18 Q1018
LIRA - Rome
Gewijzigd: 20-07-2019 00:20
Helder  
Helder  
   Wind: OZO 0 km/h
Wind: OZO 0 km/h
Temperatuur: 21°C
Dauwpunt: 15°C
Vochtigheid: 69%
Barometer: 1017 hPa
Zicht: meer dan 10 km
Bewolking: Helder m
LIRA 192220Z 11004KT CAVOK 21/15 Q1017
LPFR - Faro
Gewijzigd: 20-07-2019 00:30
Helder  
Helder  
   Wind: Westen 0 km/h
Wind: Westen 0 km/h
Temperatuur: 26°C
Dauwpunt: 16°C
Vochtigheid: 54%
Barometer: 1011 hPa
Zicht: meer dan 10 km
Bewolking: Helder m
LPFR 192230Z 28007KT CAVOK 26/16 Q1011
EBCV - Mons/Bergen
Gewijzigd: 20-07-2019 00:25
Grotendeels bewolkt  
Grotendeels bewolkt  
   Wind: ZZO 0 km/h
Wind: ZZO 0 km/h
Temperatuur: 21°C
Dauwpunt: 15°C
Vochtigheid: 69%
Barometer: 1012 hPa
Bewolking: Mostly Cloudy
Zicht: meer dan 10 km
Bewolking: Grotendeels bewolkt 1859.3 m
EBCV 192225Z AUTO 15007KT 9999 BKN061/// 21/15 Q1012 BLU
EBOS - Oostende
Gewijzigd: 20-07-2019 00:20
Helder  
Helder  
   Wind: ZO 0 km/h
Wind: ZO 0 km/h
Temperatuur: 17°C
Dauwpunt: 14°C
Vochtigheid: 83%
Barometer: 1011 hPa
Zicht: meer dan 10 km
Bewolking: Helder m
EBOS 192220Z 13005KT CAVOK 17/14 Q1011 NOSIG

Script ontwikkeld door  Saratoga-weather.org Aangepast voor de template door  Weerstation Leuven

Apparatuur in gebruik:

Weerprogramma
Meteohub

Meteohub